Time;durP1;ratioP1;P1;durP2;ratioP2;P2;SDS_P1;SDS_P2;PMS_P1;PMS_P2;Temp;Humidity;BMP_temperature;BMP_pressure;BME280_temperature;BME280_humidity;BME280_pressure;Samples;Min_cycle;Max_cycle;Signal;HPM_P1;HPM_P2
2021/12/09 00:01:20;;;;;;;9.35;6.00;;;0.80;99.90;;;;;;4983521;28;20068;-67
2021/12/09 00:03:46;;;;;;;14.75;5.82;;;0.80;99.90;;;;;;5024565;28;20033;-68
2021/12/09 00:06:12;;;;;;;16.58;6.53;;;0.80;99.90;;;;;;5044802;28;20116;-68
2021/12/09 00:08:41;;;;;;;11.02;6.03;;;0.80;99.90;;;;;;5029429;28;20082;-68
2021/12/09 00:11:07;;;;;;;10.98;5.95;;;0.80;99.90;;;;;;5029439;28;20048;-67
2021/12/09 00:13:33;;;;;;;11.98;5.88;;;0.70;99.90;;;;;;5026202;28;20219;-68
2021/12/09 00:15:59;;;;;;;13.05;6.72;;;0.70;99.90;;;;;;5028947;28;20444;-68
2021/12/09 00:18:25;;;;;;;13.50;6.00;;;0.70;99.90;;;;;;5026664;28;20086;-67
2021/12/09 00:20:52;;;;;;;13.02;6.38;;;0.70;99.90;;;;;;5028347;28;20142;-67
2021/12/09 00:23:18;;;;;;;12.70;6.00;;;0.60;99.90;;;;;;5026313;28;20465;-67
2021/12/09 00:25:43;;;;;;;14.05;6.28;;;0.60;99.90;;;;;;5044229;28;20025;-67
2021/12/09 00:28:09;;;;;;;15.65;6.63;;;0.50;99.90;;;;;;5013053;28;20056;-68
2021/12/09 00:30:35;;;;;;;14.77;6.47;;;0.50;99.90;;;;;;5035885;28;20464;-68
2021/12/09 00:33:04;;;;;;;17.15;7.53;;;0.50;99.90;;;;;;5033721;28;20041;-67
2021/12/09 00:35:41;;;;;;;15.45;7.22;;;0.50;99.90;;;;;;5035717;28;20029;-67
2021/12/09 00:38:09;;;;;;;15.38;6.95;;;0.60;99.90;;;;;;5033858;28;20060;-68
2021/12/09 00:40:35;;;;;;;10.63;6.57;;;0.50;99.90;;;;;;5019155;28;20037;-68
2021/12/09 00:43:01;;;;;;;12.65;6.85;;;0.40;99.90;;;;;;5033184;28;20044;-67
2021/12/09 00:45:27;;;;;;;13.85;8.18;;;0.40;99.90;;;;;;5035824;28;20072;-68
2021/12/09 00:47:53;;;;;;;13.35;7.32;;;0.40;99.90;;;;;;5036066;28;20064;-67
2021/12/09 00:50:20;;;;;;;12.27;6.60;;;0.40;99.90;;;;;;5035511;28;20075;-67
2021/12/09 00:52:47;;;;;;;16.02;7.32;;;0.40;99.90;;;;;;5034132;28;20040;-68
2021/12/09 00:55:13;;;;;;;17.33;7.30;;;0.40;99.90;;;;;;5053622;28;20396;-68
2021/12/09 00:57:41;;;;;;;15.10;7.85;;;0.30;99.90;;;;;;5032720;28;20051;-67
2021/12/09 01:00:18;;;;;;;12.95;7.20;;;0.30;99.90;;;;;;5019168;28;20336;-67
2021/12/09 01:02:44;;;;;;;15.25;7.47;;;0.20;99.90;;;;;;5035011;28;20066;-67
2021/12/09 01:05:11;;;;;;;12.10;6.80;;;0.20;99.90;;;;;;5037989;28;20135;-67
2021/12/09 01:07:39;;;;;;;18.52;7.25;;;0.20;99.90;;;;;;5033287;28;20155;-67
2021/12/09 01:10:08;;;;;;;16.80;7.45;;;0.10;99.90;;;;;;5037166;28;20112;-67
2021/12/09 01:12:34;;;;;;;13.18;7.25;;;0.10;99.90;;;;;;5031140;28;20211;-67
2021/12/09 01:14:59;;;;;;;14.60;7.40;;;0.10;99.90;;;;;;5036212;28;20217;-66
2021/12/09 01:17:26;;;;;;;16.23;8.55;;;0.10;99.90;;;;;;5035035;28;20045;-67
2021/12/09 01:19:53;;;;;;;16.17;7.45;;;0.10;99.90;;;;;;5034258;28;20559;-67
2021/12/09 01:22:19;;;;;;;11.98;7.38;;;0.20;99.90;;;;;;5033913;28;20029;-67
2021/12/09 01:24:45;;;;;;;18.48;7.72;;;0.20;99.90;;;;;;5030780;28;20065;-67
2021/12/09 01:27:11;;;;;;;15.65;8.32;;;0.20;99.90;;;;;;5031533;28;20087;-67
2021/12/09 01:29:40;;;;;;;15.43;8.13;;;0.20;99.90;;;;;;5033241;28;20080;-68
2021/12/09 01:32:08;;;;;;;14.63;8.13;;;0.20;99.90;;;;;;5035907;28;20126;-67
2021/12/09 01:34:36;;;;;;;13.13;7.90;;;0.20;99.90;;;;;;5035090;28;20039;-66
2021/12/09 01:37:03;;;;;;;13.85;8.00;;;0.10;99.90;;;;;;5031830;28;20369;-67
2021/12/09 01:39:30;;;;;;;12.32;7.70;;;0.10;99.90;;;;;;5031208;28;20361;-67
2021/12/09 01:41:58;;;;;;;13.55;8.13;;;0.10;99.90;;;;;;5027828;28;20079;-67
2021/12/09 01:44:24;;;;;;;17.83;7.72;;;0.10;99.90;;;;;;5030599;28;20051;-67
2021/12/09 01:46:50;;;;;;;15.90;8.05;;;0.00;99.90;;;;;;5031449;28;20117;-67
2021/12/09 01:49:17;;;;;;;17.52;9.10;;;0.00;99.90;;;;;;5016722;28;20415;-67
2021/12/09 01:51:45;;;;;;;15.55;8.30;;;0.00;99.90;;;;;;5016881;28;20041;-67
2021/12/09 01:54:12;;;;;;;15.82;8.30;;;0.00;99.90;;;;;;5050673;28;20683;-67
2021/12/09 01:56:37;;;;;;;17.38;8.10;;;0.00;99.90;;;;;;5030186;28;20083;-67
2021/12/09 01:59:05;;;;;;;15.88;8.65;;;0.10;99.90;;;;;;5026110;28;20072;-67
2021/12/09 02:01:34;;;;;;;17.73;8.95;;;0.10;99.90;;;;;;5031341;28;20484;-68
2021/12/09 02:04:03;;;;;;;16.02;8.90;;;0.10;99.90;;;;;;5032903;28;20079;-67
2021/12/09 02:06:29;;;;;;;15.63;8.88;;;0.10;99.90;;;;;;5030175;28;20076;-65
2021/12/09 02:08:55;;;;;;;16.58;9.02;;;0.20;99.90;;;;;;5029135;28;20162;-64
2021/12/09 02:11:21;;;;;;;19.48;9.05;;;0.30;99.90;;;;;;5014954;28;20056;-65
2021/12/09 02:13:50;;;;;;;17.85;8.93;;;0.30;99.90;;;;;;5021865;28;20060;-64
2021/12/09 02:16:16;;;;;;;19.27;9.07;;;0.30;99.90;;;;;;5029459;28;20052;-65
2021/12/09 02:18:42;;;;;;;17.38;8.18;;;0.30;99.90;;;;;;5032415;28;20045;-65
2021/12/09 02:21:08;;;;;;;18.33;8.93;;;0.20;99.90;;;;;;5031538;28;20051;-65
2021/12/09 02:23:34;;;;;;;15.98;10.20;;;0.40;99.90;;;;;;5027169;28;20047;-65
2021/12/09 02:25:59;;;;;;;17.85;9.80;;;0.40;99.90;;;;;;5030167;28;20045;-65
2021/12/09 02:28:26;;;;;;;19.58;9.98;;;0.40;99.90;;;;;;5028674;28;20040;-65
2021/12/09 02:30:53;;;;;;;24.40;9.40;;;0.40;99.90;;;;;;5015090;28;20037;-65
2021/12/09 02:33:18;;;;;;;16.77;9.73;;;0.30;99.90;;;;;;5029550;28;20132;-65
2021/12/09 02:35:44;;;;;;;18.23;9.63;;;0.30;99.90;;;;;;5029628;28;20139;-65
2021/12/09 02:38:10;;;;;;;17.77;9.02;;;0.30;99.90;;;;;;5031111;28;20128;-64
2021/12/09 02:40:36;;;;;;;17.67;9.25;;;0.30;99.90;;;;;;5031525;28;20041;-65
2021/12/09 02:43:07;;;;;;;17.42;10.65;;;0.20;99.90;;;;;;5028210;28;20721;-65
2021/12/09 02:45:33;;;;;;;23.45;9.00;;;0.20;99.90;;;;;;5027673;28;20139;-65
2021/12/09 02:47:59;;;;;;;22.25;9.77;;;0.20;99.90;;;;;;5013494;28;20055;-64
2021/12/09 02:50:25;;;;;;;15.55;9.77;;;0.10;99.90;;;;;;5048690;28;20431;-65
2021/12/09 02:52:51;;;;;;;19.90;9.98;;;0.20;99.90;;;;;;5027177;28;20037;-65
2021/12/09 02:55:16;;;;;;;22.88;10.07;;;0.30;99.90;;;;;;5032298;28;20354;-66
2021/12/09 02:57:42;;;;;;;18.83;10.77;;;0.40;99.90;;;;;;5027476;28;20036;-66
2021/12/09 03:00:11;;;;;;;22.85;11.05;;;0.30;99.90;;;;;;5031613;28;20120;-65
2021/12/09 03:02:37;;;;;;;24.13;11.05;;;0.50;99.90;;;;;;5028632;28;20041;-65
2021/12/09 03:05:04;;;;;;;23.27;11.35;;;0.60;99.90;;;;;;5031706;28;20420;-65
2021/12/09 03:07:34;;;;;;;25.65;12.32;;;0.50;99.90;;;;;;5030610;28;20119;-66
2021/12/09 03:10:10;;;;;;;25.25;11.52;;;0.50;99.90;;;;;;5030541;28;20041;-66
2021/12/09 03:12:39;;;;;;;20.15;10.85;;;0.50;99.90;;;;;;5023613;28;20049;-65
2021/12/09 03:15:06;;;;;;;27.08;12.70;;;0.50;99.90;;;;;;5026774;28;20064;-65
2021/12/09 03:17:33;;;;;;;21.38;11.20;;;0.50;99.90;;;;;;5029481;28;20138;-65
2021/12/09 03:19:59;;;;;;;20.13;10.82;;;0.50;99.90;;;;;;5031460;28;20061;-65
2021/12/09 03:22:24;;;;;;;22.83;11.07;;;0.50;99.90;;;;;;5030741;28;20090;-65
2021/12/09 03:24:50;;;;;;;20.90;10.32;;;0.40;99.90;;;;;;5045567;28;20548;-65
2021/12/09 03:27:16;;;;;;;24.25;10.23;;;0.40;99.90;;;;;;5030270;28;20451;-64
2021/12/09 03:29:42;;;;;;;21.33;11.48;;;0.40;99.90;;;;;;5027609;28;20041;-65
2021/12/09 03:32:12;;;;;;;23.52;10.95;;;0.40;99.90;;;;;;5030508;28;20036;-64
2021/12/09 03:34:41;;;;;;;19.95;10.10;;;0.30;99.90;;;;;;5030083;28;20128;-65
2021/12/09 03:37:13;;;;;;;18.13;10.32;;;0.20;99.90;;;;;;5030620;28;20427;-65
2021/12/09 03:39:40;;;;;;;21.60;9.95;;;0.10;99.90;;;;;;5030730;28;20047;-65
2021/12/09 03:42:10;;;;;;;23.80;10.07;;;0.10;99.90;;;;;;5029387;28;20033;-65
2021/12/09 03:44:37;;;;;;;23.48;9.90;;;0.10;99.90;;;;;;5027267;28;20036;-64
2021/12/09 03:47:05;;;;;;;18.77;10.35;;;0.00;99.90;;;;;;5024227;28;20064;-65
2021/12/09 03:49:31;;;;;;;18.80;9.80;;;0.00;99.90;;;;;;5048649;28;20473;-66
2021/12/09 03:51:57;;;;;;;20.48;10.43;;;0.00;99.90;;;;;;5030013;28;20133;-65
2021/12/09 03:54:24;;;;;;;17.90;9.70;;;0.00;99.90;;;;;;5031024;28;20786;-65
2021/12/09 03:56:51;;;;;;;22.17;10.10;;;0.00;99.90;;;;;;5011132;28;20044;-65
2021/12/09 03:59:17;;;;;;;24.08;11.30;;;-0.10;99.90;;;;;;5027571;28;20495;-65
2021/12/09 04:01:45;;;;;;;20.35;10.50;;;-0.10;99.90;;;;;;5028868;28;20075;-65
2021/12/09 04:04:11;;;;;;;17.70;10.60;;;-0.10;99.90;;;;;;5031593;28;20044;-65
2021/12/09 04:06:37;;;;;;;21.42;9.90;;;-0.10;99.90;;;;;;5026407;28;20124;-66
2021/12/09 04:09:07;;;;;;;23.08;10.95;;;-0.20;99.90;;;;;;5049960;28;20117;-65
2021/12/09 04:11:33;;;;;;;17.65;10.02;;;-0.10;99.90;;;;;;5027084;28;20045;-66
2021/12/09 04:13:59;;;;;;;25.17;10.80;;;-0.10;99.90;;;;;;5028741;28;20072;-65
2021/12/09 04:16:25;;;;;;;18.98;10.38;;;-0.20;99.90;;;;;;5026694;28;20029;-65
2021/12/09 04:18:51;;;;;;;18.75;9.98;;;-0.20;99.90;;;;;;5031706;28;20037;-65
2021/12/09 04:21:16;;;;;;;21.00;11.40;;;-0.20;99.90;;;;;;5014288;28;20053;-65
2021/12/09 04:23:42;;;;;;;22.75;11.57;;;-0.20;99.90;;;;;;5017821;28;20389;-65
2021/12/09 04:26:08;;;;;;;23.80;11.63;;;-0.20;99.90;;;;;;5028102;28;20067;-65
2021/12/09 04:28:35;;;;;;;23.92;11.57;;;-0.20;99.90;;;;;;5028240;28;20037;-64
2021/12/09 04:31:02;;;;;;;25.85;11.95;;;-0.20;99.90;;;;;;5029482;28;20684;-64
2021/12/09 04:33:29;;;;;;;24.33;11.85;;;-0.20;99.90;;;;;;5030129;28;20065;-64
2021/12/09 04:35:56;;;;;;;23.08;11.65;;;-0.20;99.90;;;;;;5028091;28;20045;-65
2021/12/09 04:38:21;;;;;;;20.63;11.68;;;-0.20;99.90;;;;;;5031409;28;20056;-65
2021/12/09 04:40:47;;;;;;;23.52;11.77;;;-0.20;99.90;;;;;;5029637;28;20033;-65
2021/12/09 04:43:13;;;;;;;28.73;11.80;;;-0.30;99.90;;;;;;5027299;28;20353;-65
2021/12/09 04:45:40;;;;;;;20.45;11.05;;;-0.30;99.90;;;;;;5025461;28;20327;-64
2021/12/09 04:48:07;;;;;;;21.27;10.43;;;-0.40;99.90;;;;;;5028817;28;20048;-65
2021/12/09 04:50:34;;;;;;;19.40;10.77;;;-0.40;99.90;;;;;;5031014;28;20370;-65
2021/12/09 04:52:59;;;;;;;26.40;12.30;;;-0.40;99.90;;;;;;5028245;28;20048;-65
2021/12/09 04:55:25;;;;;;;27.27;13.15;;;-0.40;99.90;;;;;;5029748;28;20033;-65
2021/12/09 04:57:51;;;;;;;22.63;11.63;;;-0.40;99.90;;;;;;5026984;28;20087;-65
2021/12/09 05:00:21;;;;;;;24.70;12.40;;;-0.40;99.90;;;;;;5026466;28;20436;-64
2021/12/09 05:03:02;;;;;;;28.23;14.30;;;-0.40;99.90;;;;;;5026953;28;20044;-65
2021/12/09 05:05:32;;;;;;;30.05;12.73;;;-0.40;99.90;;;;;;5030506;28;20033;-64
2021/12/09 05:07:58;;;;;;;;;;;-0.30;99.90;;;;;;5029150;28;20059;-65
2021/12/09 05:10:24;;;;;;;26.58;12.52;;;-0.30;99.90;;;;;;5029236;28;19921;-65
2021/12/09 05:12:49;;;;;;;21.38;11.93;;;-0.30;99.90;;;;;;5031278;28;20072;-65
2021/12/09 05:15:15;;;;;;;28.38;13.63;;;-0.30;99.90;;;;;;5032964;28;20045;-64
2021/12/09 05:17:41;;;;;;;31.67;13.48;;;-0.40;99.90;;;;;;5031746;28;20037;-64
2021/12/09 05:20:07;;;;;;;21.90;12.82;;;-0.40;99.90;;;;;;5007280;28;20049;-65
2021/12/09 05:22:32;;;;;;;27.38;13.30;;;-0.40;99.90;;;;;;5002102;28;20134;-64
2021/12/09 05:24:58;;;;;;;23.73;12.35;;;-0.40;99.90;;;;;;5008525;28;20042;-64
2021/12/09 05:27:25;;;;;;;30.23;13.57;;;-0.40;99.90;;;;;;5004709;28;20029;-66
2021/12/09 05:30:04;;;;;;;24.38;12.90;;;-0.40;99.90;;;;;;4995503;28;20056;-65
2021/12/09 05:32:30;;;;;;;24.33;12.93;;;-0.40;99.90;;;;;;4997515;28;20056;-65
2021/12/09 05:34:57;;;;;;;26.83;12.55;;;-0.40;99.90;;;;;;4996616;28;20365;-65
2021/12/09 05:37:25;;;;;;;25.60;13.45;;;-0.50;99.90;;;;;;4996469;28;20034;-66
2021/12/09 05:39:52;;;;;;;25.83;12.95;;;-0.60;99.90;;;;;;5032340;28;20045;-65
2021/12/09 05:42:20;;;;;;;25.67;11.68;;;-0.60;99.90;;;;;;5010586;28;20389;-64
2021/12/09 05:44:46;;;;;;;25.52;13.18;;;-0.60;99.90;;;;;;5009169;28;20042;-65
2021/12/09 05:47:12;;;;;;;23.67;11.70;;;-0.60;99.90;;;;;;5008289;28;20088;-65
2021/12/09 05:49:41;;;;;;;24.90;12.57;;;-0.70;99.90;;;;;;4996477;28;20122;-65
2021/12/09 05:52:08;;;;;;;22.75;12.68;;;-0.70;99.90;;;;;;5003713;28;20049;-66
2021/12/09 05:54:34;;;;;;;24.38;13.00;;;-0.70;99.90;;;;;;4997267;28;20168;-65
2021/12/09 05:57:00;;;;;;;25.58;11.93;;;-0.70;99.90;;;;;;5010447;28;20136;-65
2021/12/09 05:59:27;;;;;;;27.30;12.43;;;-0.70;99.90;;;;;;5011627;28;20234;-65
2021/12/09 06:01:52;;;;;;;28.48;14.02;;;-0.70;99.90;;;;;;4995716;28;20037;-65
2021/12/09 06:04:19;;;;;;;21.35;13.30;;;-0.80;99.90;;;;;;5010874;28;20041;-66
2021/12/09 06:06:44;;;;;;;27.20;12.73;;;-0.70;99.90;;;;;;5006537;28;20112;-65
2021/12/09 06:09:11;;;;;;;32.03;14.13;;;-0.80;99.90;;;;;;5000634;28;20457;-65
2021/12/09 06:11:39;;;;;;;26.10;13.27;;;-0.80;99.90;;;;;;5028602;28;20037;-66
2021/12/09 06:14:06;;;;;;;28.83;13.10;;;-0.80;99.90;;;;;;5008753;28;20083;-66
2021/12/09 06:16:32;;;;;;;23.33;12.48;;;-0.80;99.90;;;;;;5010313;28;20168;-66
2021/12/09 06:18:58;;;;;;;28.88;12.50;;;-0.90;99.90;;;;;;5011378;28;20065;-66
2021/12/09 06:21:27;;;;;;;29.50;12.70;;;-0.90;99.90;;;;;;5009698;28;20073;-65
2021/12/09 06:23:53;;;;;;;27.70;13.25;;;-0.80;99.90;;;;;;5011766;28;20038;-66
2021/12/09 06:26:20;;;;;;;24.08;12.55;;;-0.80;99.90;;;;;;5010001;28;20100;-65
2021/12/09 06:28:46;;;;;;;27.60;13.90;;;-0.80;99.90;;;;;;5010332;28;20120;-66
2021/12/09 06:31:12;;;;;;;28.95;14.18;;;-0.80;99.90;;;;;;5010515;28;20120;-65
2021/12/09 06:33:37;;;;;;;27.55;13.00;;;-0.80;99.90;;;;;;5012360;28;20061;-66
2021/12/09 06:36:03;;;;;;;27.10;13.40;;;-0.80;99.90;;;;;;5008757;28;20442;-66
2021/12/09 06:38:29;;;;;;;27.73;12.50;;;-0.80;99.90;;;;;;5011931;28;20051;-65
2021/12/09 06:40:55;;;;;;;33.28;14.50;;;-0.90;99.90;;;;;;5012208;28;20124;-67
2021/12/09 06:43:22;;;;;;;25.38;12.70;;;-0.80;99.90;;;;;;4993095;28;20033;-67
2021/12/09 06:45:48;;;;;;;28.52;14.35;;;-0.70;99.90;;;;;;5009831;28;20095;-66
2021/12/09 06:48:14;;;;;;;31.23;14.43;;;-0.50;99.90;;;;;;4990392;28;20092;-66
2021/12/09 06:50:40;;;;;;;38.03;15.02;;;-0.50;99.90;;;;;;5010046;28;20479;-67
2021/12/09 06:53:06;;;;;;;29.38;13.52;;;-0.40;99.90;;;;;;5011742;28;20056;-65
2021/12/09 06:55:31;;;;;;;29.00;14.65;;;-0.40;99.90;;;;;;5028526;28;20405;-66
2021/12/09 06:57:57;;;;;;;29.38;15.57;;;-0.30;99.90;;;;;;5010017;28;20046;-66
2021/12/09 07:00:29;;;;;;;32.05;15.90;;;-0.30;99.90;;;;;;5011054;28;20034;-65
2021/12/09 07:02:55;;;;;;;34.85;15.70;;;-0.30;99.90;;;;;;5011458;28;20041;-66
2021/12/09 07:05:23;;;;;;;34.20;15.35;;;-0.30;99.90;;;;;;4999758;28;20438;-66
2021/12/09 07:07:50;;;;;;;24.15;12.45;;;-0.40;99.90;;;;;;5009957;28;20123;-66
2021/12/09 07:10:16;;;;;;;27.85;14.43;;;-0.40;99.90;;;;;;4994363;28;20029;-66
2021/12/09 07:12:42;;;;;;;31.08;14.55;;;-0.50;99.90;;;;;;4992210;28;20045;-66
2021/12/09 07:15:11;;;;;;;33.25;15.32;;;-0.50;99.90;;;;;;5008590;28;20497;-67
2021/12/09 07:17:37;;;;;;;29.02;13.40;;;-0.50;99.90;;;;;;5009798;28;20056;-66
2021/12/09 07:20:05;;;;;;;25.98;13.30;;;-0.50;99.90;;;;;;5009895;28;20049;-67
2021/12/09 07:22:31;;;;;;;28.75;14.35;;;-0.50;99.90;;;;;;5014095;28;20076;-66
2021/12/09 07:24:57;;;;;;;32.45;13.52;;;-0.50;99.90;;;;;;5010960;28;20417;-66
2021/12/09 07:27:22;;;;;;;30.45;14.60;;;-0.60;99.90;;;;;;5008728;28;20449;-67
2021/12/09 07:29:48;;;;;;;30.10;14.75;;;-0.50;99.90;;;;;;5008796;28;20103;-66
2021/12/09 07:32:13;;;;;;;31.23;14.27;;;-0.50;99.90;;;;;;5008914;28;20113;-66
2021/12/09 07:34:39;;;;;;;28.85;14.13;;;-0.60;99.90;;;;;;5010534;28;20034;-67
2021/12/09 07:37:05;;;;;;;28.95;14.45;;;-0.50;99.90;;;;;;5011375;28;20208;-66
2021/12/09 07:39:32;;;;;;;33.40;14.98;;;-0.50;99.90;;;;;;5000812;28;20462;-66
2021/12/09 07:41:59;;;;;;;27.42;13.23;;;-0.60;99.90;;;;;;4994591;28;20142;-66
2021/12/09 07:44:26;;;;;;;31.85;14.48;;;-0.60;99.90;;;;;;5010092;28;20042;-66
2021/12/09 07:46:54;;;;;;;32.03;14.15;;;-0.50;99.90;;;;;;4995344;28;20056;-66
2021/12/09 07:49:20;;;;;;;31.50;14.88;;;-0.50;99.90;;;;;;5011853;28;20384;-66
2021/12/09 07:51:47;;;;;;;29.35;14.05;;;-0.50;99.90;;;;;;5012393;28;20389;-66
2021/12/09 07:54:12;;;;;;;27.85;13.32;;;-0.50;99.90;;;;;;5012021;28;20083;-66
2021/12/09 07:56:38;;;;;;;27.85;14.30;;;-0.60;99.90;;;;;;4994440;28;20111;-66
2021/12/09 07:59:03;;;;;;;32.60;14.43;;;-0.50;99.90;;;;;;5008795;28;20039;-66
2021/12/09 08:01:29;;;;;;;25.33;13.10;;;-0.50;99.90;;;;;;5010611;28;20041;-66
2021/12/09 08:03:55;;;;;;;33.95;14.65;;;-0.50;99.90;;;;;;5012433;28;20083;-67
2021/12/09 08:06:21;;;;;;;35.97;15.27;;;-0.50;99.90;;;;;;5029133;28;20045;-66
2021/12/09 08:08:47;;;;;;;34.70;15.48;;;-0.30;99.90;;;;;;5011880;28;20480;-67
2021/12/09 08:11:12;;;;;;;35.38;17.75;;;-0.30;99.90;;;;;;5008349;28;20128;-66
2021/12/09 08:13:38;;;;;;;31.63;15.77;;;-0.10;99.90;;;;;;4982035;28;20045;-67
2021/12/09 08:16:04;;;;;;;34.65;16.45;;;-0.10;99.90;;;;;;5005547;28;20753;-66
2021/12/09 08:18:33;;;;;;;32.58;15.30;;;0.00;99.90;;;;;;4995288;28;20069;-67
2021/12/09 08:21:01;;;;;;;27.10;14.32;;;0.00;99.90;;;;;;5011407;28;20053;-66
2021/12/09 08:23:27;;;;;;;39.28;14.88;;;0.00;99.90;;;;;;5027018;28;20082;-66
2021/12/09 08:25:55;;;;;;;36.30;15.00;;;0.00;99.90;;;;;;5031527;28;20741;-66
2021/12/09 08:28:21;;;;;;;28.10;13.77;;;0.00;99.90;;;;;;5027827;28;20036;-64
2021/12/09 08:30:50;;;;;;;32.78;15.68;;;0.00;99.90;;;;;;5014498;28;20033;-66
2021/12/09 08:33:17;;;;;;;33.58;14.35;;;0.00;99.90;;;;;;5032274;28;20037;-67
2021/12/09 08:35:42;;;;;;;31.83;15.23;;;0.00;99.90;;;;;;5031084;28;20433;-66
2021/12/09 08:38:08;;;;;;;36.47;14.40;;;0.20;99.90;;;;;;5030124;28;20131;-66
2021/12/09 08:40:34;;;;;;;31.92;14.27;;;0.20;99.90;;;;;;5031161;28;20060;-65
2021/12/09 08:43:00;;;;;;;33.40;14.60;;;0.20;99.90;;;;;;5028658;28;20108;-65
2021/12/09 08:45:26;;;;;;;34.35;15.40;;;0.30;99.90;;;;;;5033560;28;20151;-66
2021/12/09 08:47:52;;;;;;;29.98;15.20;;;0.30;99.90;;;;;;5034495;28;20024;-65
2021/12/09 08:50:21;;;;;;;33.40;15.95;;;0.50;99.90;;;;;;5031906;28;20055;-65
2021/12/09 08:52:50;;;;;;;31.13;15.63;;;0.60;99.90;;;;;;5018346;28;20159;-65
2021/12/09 08:55:17;;;;;;;36.42;16.30;;;0.70;99.90;;;;;;5035303;28;20461;-64
2021/12/09 08:57:43;;;;;;;32.20;16.23;;;0.70;99.90;;;;;;5014519;28;20052;-64
2021/12/09 09:00:12;;;;;;;34.85;15.45;;;0.80;99.90;;;;;;5016356;28;20033;-64
2021/12/09 09:02:41;;;;;;;30.83;14.70;;;0.90;99.90;;;;;;5035162;28;20036;-64
2021/12/09 09:05:11;;;;;;;27.75;14.05;;;0.90;99.90;;;;;;5053562;28;20041;-65
2021/12/09 09:07:48;;;;;;;31.25;14.82;;;0.80;99.90;;;;;;5034223;28;20056;-67
2021/12/09 09:10:18;;;;;;;31.95;13.90;;;0.90;99.90;;;;;;5034949;28;20049;-64
2021/12/09 09:12:43;;;;;;;27.27;12.70;;;0.90;99.90;;;;;;5042982;28;20041;-64
2021/12/09 09:15:12;;;;;;;26.95;13.13;;;0.90;99.90;;;;;;5032544;28;20038;-65
2021/12/09 09:17:38;;;;;;;25.83;13.02;;;1.00;99.90;;;;;;5025834;28;20041;-64
2021/12/09 09:20:06;;;;;;;28.65;13.07;;;1.10;99.90;;;;;;5034839;28;20174;-64
2021/12/09 09:22:32;;;;;;;25.02;11.90;;;1.10;99.90;;;;;;5034214;28;20191;-64
2021/12/09 09:24:58;;;;;;;26.80;12.07;;;1.10;99.90;;;;;;5033204;28;20212;-65
2021/12/09 09:27:23;;;;;;;24.88;11.77;;;1.10;99.90;;;;;;5051364;28;20123;-65
2021/12/09 09:29:49;;;;;;;22.55;11.98;;;1.20;99.90;;;;;;5031714;28;20048;-67
2021/12/09 09:32:15;;;;;;;23.63;12.70;;;1.10;99.90;;;;;;5033238;28;20049;-66
2021/12/09 09:34:41;;;;;;;24.98;11.65;;;1.20;99.90;;;;;;5033262;28;20149;-67
2021/12/09 09:37:07;;;;;;;22.67;12.18;;;1.30;99.90;;;;;;5031521;28;20037;-67
2021/12/09 09:39:33;;;;;;;24.70;12.00;;;1.30;99.90;;;;;;5033848;28;20045;-66
2021/12/09 09:44:47;;;;;;;24.20;11.45;;;1.30;99.90;;;;;;5032438;28;20156;-67
2021/12/09 09:47:13;;;;;;;21.80;10.98;;;1.50;99.90;;;;;;5033264;28;20166;-67
2021/12/09 09:49:40;;;;;;;23.80;10.50;;;1.50;99.90;;;;;;5033953;28;20041;-67
2021/12/09 09:52:08;;;;;;;24.17;9.82;;;1.60;99.90;;;;;;5051999;28;20555;-66
2021/12/09 09:54:35;;;;;;;27.02;10.55;;;1.70;99.90;;;;;;5052298;28;20044;-67
2021/12/09 09:57:01;;;;;;;22.05;10.98;;;1.70;99.90;;;;;;5031214;28;20488;-67
2021/12/09 09:59:27;;;;;;;24.98;11.13;;;1.80;99.90;;;;;;5031904;28;20103;-67
2021/12/09 10:01:55;;;;;;;18.60;9.35;;;1.80;99.90;;;;;;5029972;28;20409;-67
2021/12/09 10:04:32;;;;;;;24.27;11.18;;;1.80;99.90;;;;;;5031424;28;20041;-66
2021/12/09 10:06:59;;;;;;;21.98;10.15;;;1.90;99.90;;;;;;5051566;28;20044;-67
2021/12/09 10:09:24;;;;;;;21.20;10.23;;;2.00;99.90;;;;;;5017396;28;20099;-67
2021/12/09 10:11:50;;;;;;;17.95;9.05;;;2.00;99.90;;;;;;5032520;28;20041;-67
2021/12/09 10:14:19;;;;;;;16.63;8.85;;;2.00;99.90;;;;;;5029656;28;20068;-67
2021/12/09 10:16:46;;;;;;;24.42;9.45;;;2.10;99.90;;;;;;4997163;28;20064;-68
2021/12/09 10:19:19;;;;;;;17.25;9.18;;;2.10;99.90;;;;;;5021395;28;20076;-68
2021/12/09 10:21:45;;;;;;;20.83;9.63;;;2.20;99.90;;;;;;5032230;28;20049;-68
2021/12/09 10:24:11;;;;;;;18.25;9.95;;;2.20;99.90;;;;;;5015556;28;20133;-67
2021/12/09 10:26:38;;;;;;;14.80;9.05;;;2.30;99.90;;;;;;5032154;28;20040;-68
2021/12/09 10:29:30;;;;;;;16.08;8.80;;;2.40;99.90;;;;;;5048641;28;20406;-68
2021/12/09 10:32:00;;;;;;;27.45;8.70;;;2.40;99.90;;;;;;5032426;28;20506;-67
2021/12/09 10:34:41;;;;;;;18.83;8.75;;;2.40;99.90;;;;;;5016608;28;20037;-68
2021/12/09 10:37:22;;;;;;;18.80;8.77;;;2.50;99.90;;;;;;5017496;28;20115;-68
2021/12/09 10:40:06;;;;;;;18.80;9.00;;;2.60;99.90;;;;;;5032639;28;20048;-68
2021/12/09 10:42:39;;;;;;;15.18;8.00;;;2.60;99.90;;;;;;5031291;28;20033;-68
2021/12/09 10:45:05;;;;;;;15.18;8.18;;;2.70;99.90;;;;;;5031876;28;20041;-67
2021/12/09 10:50:40;;;;;;;18.83;8.10;;;2.70;99.90;;;;;;5032956;28;20059;-68
2021/12/09 10:55:51;;;;;;;17.80;8.13;;;2.70;99.90;;;;;;5032014;28;20136;-68
2021/12/09 10:58:19;;;;;;;18.58;7.75;;;2.80;99.90;;;;;;5042596;28;20045;-69
2021/12/09 11:00:58;;;;;;;20.63;8.68;;;2.80;99.90;;;;;;5030425;28;20037;-69
2021/12/09 11:03:27;;;;;;;16.27;8.50;;;2.90;99.90;;;;;;5016847;28;20483;-70
2021/12/09 11:05:54;;;;;;;21.13;8.02;;;2.90;99.90;;;;;;5014620;28;20033;-67
2021/12/09 11:08:25;;;;;;;15.60;7.50;;;3.00;99.90;;;;;;5014612;28;20068;-68
2021/12/09 11:11:11;;;;;;;15.70;7.93;;;3.00;99.90;;;;;;5032887;28;20090;-69
2021/12/09 11:13:50;;;;;;;14.43;7.80;;;3.00;99.90;;;;;;5021959;28;20049;-68
2021/12/09 11:16:24;;;;;;;18.77;8.60;;;3.10;99.90;;;;;;5030793;28;20041;-68
2021/12/09 11:19:08;;;;;;;15.82;8.63;;;3.00;99.90;;;;;;5031502;28;20527;-67
2021/12/09 11:21:40;;;;;;;17.23;8.32;;;3.00;99.90;;;;;;5032036;28;20083;-67
2021/12/09 11:24:13;;;;;;;22.10;10.00;;;3.00;99.90;;;;;;5032702;28;20041;-67
2021/12/09 11:26:44;;;;;;;19.88;9.38;;;3.10;99.90;;;;;;5031099;28;20033;-70
2021/12/09 11:29:17;;;;;;;17.25;9.73;;;3.00;99.90;;;;;;5027819;28;20386;-67
2021/12/09 11:31:56;;;;;;;23.08;9.32;;;3.00;99.90;;;;;;5049206;28;20128;-67
2021/12/09 11:34:26;;;;;;;19.55;9.00;;;3.00;99.90;;;;;;5026545;28;20049;-69
2021/12/09 11:36:57;;;;;;;28.70;10.85;;;3.00;99.90;;;;;;5029809;28;20095;-69
2021/12/09 11:39:30;;;;;;;22.42;9.93;;;2.90;99.90;;;;;;5027633;28;20062;-68
2021/12/09 11:42:05;;;;;;;26.33;11.38;;;2.90;99.90;;;;;;5026136;28;20102;-68
2021/12/09 11:44:32;;;;;;;21.20;11.68;;;3.00;99.90;;;;;;5024534;28;20107;-68
2021/12/09 11:46:59;;;;;;;25.85;11.40;;;3.00;99.90;;;;;;5028852;28;20368;-68
2021/12/09 11:49:24;;;;;;;23.73;10.63;;;3.00;99.90;;;;;;5029908;28;20152;-69
2021/12/09 11:51:50;;;;;;;21.80;11.35;;;3.00;99.90;;;;;;5029587;28;20142;-68
2021/12/09 11:54:16;;;;;;;25.23;10.80;;;3.10;99.90;;;;;;5029633;28;20033;-68
2021/12/09 12:11:19;;;;;;;20.15;10.57;;;3.10;99.90;;;;;;5035483;28;20052;-68
2021/12/09 12:14:01;;;;;;;24.90;11.05;;;3.10;99.90;;;;;;5025541;28;20044;-68
2021/12/09 12:16:54;;;;;;;23.52;10.52;;;3.10;99.90;;;;;;5019342;28;20048;-68
2021/12/09 12:20:06;;;;;;;21.95;11.32;;;3.10;99.90;;;;;;5028669;28;20096;-68
2021/12/09 12:22:54;;;;;;;18.90;9.88;;;3.10;99.90;;;;;;5027014;28;20050;-68
2021/12/09 12:25:43;;;;;;;21.33;11.57;;;3.10;99.90;;;;;;5018291;28;20037;-68
2021/12/09 12:42:25;;;;;;;20.45;10.68;;;3.30;99.90;;;;;;5028929;28;20045;-69
2021/12/09 12:45:21;;;;;;;24.35;10.98;;;3.40;99.90;;;;;;5026990;28;20064;-70
2021/12/09 12:47:56;;;;;;;22.10;11.00;;;3.50;99.90;;;;;;5027808;28;20048;-68
2021/12/09 12:50:22;;;;;;;21.58;11.15;;;3.40;99.90;;;;;;5031034;28;20106;-69
2021/12/09 12:52:49;;;;;;;22.38;9.93;;;3.40;99.90;;;;;;5030318;28;20040;-69
2021/12/09 12:55:20;;;;;;;16.17;9.85;;;3.30;99.90;;;;;;5030340;28;20123;-69
2021/12/09 12:57:51;;;;;;;20.02;11.10;;;3.30;99.90;;;;;;5020883;28;20049;-68
2021/12/09 13:00:31;;;;;;;23.85;11.13;;;3.30;99.90;;;;;;5007958;28;20063;-68
2021/12/09 13:03:14;;;;;;;21.17;11.05;;;3.30;99.90;;;;;;5009116;28;20076;-68
2021/12/09 13:13:32;;;;;;;24.15;11.05;;;3.30;99.90;;;;;;5024432;28;20159;-69
2021/12/09 13:21:40;;;;;;;23.08;10.73;;;3.30;99.90;;;;;;5030461;28;20360;-68
2021/12/09 13:55:05;;;;;;;30.27;12.10;;;3.50;99.90;;;;;;5033425;28;20044;-67
2021/12/09 13:57:35;;;;;;;25.45;12.50;;;3.50;99.90;;;;;;5028858;28;20041;-70
2021/12/09 14:00:04;;;;;;;23.63;12.38;;;3.50;99.90;;;;;;5032521;28;20143;-69
2021/12/09 14:02:30;;;;;;;28.55;12.98;;;3.50;99.90;;;;;;5033422;28;20033;-65
2021/12/09 14:04:58;;;;;;;30.77;13.95;;;3.50;99.90;;;;;;5012715;28;20073;-68